createdAt,value
2023-06-15T00:01:35.024Z,20.30
2023-06-15T00:04:02.366Z,20.30
2023-06-15T00:06:29.648Z,20.30
2023-06-15T00:08:57.608Z,20.30
2023-06-15T00:11:24.740Z,20.40
2023-06-15T00:13:51.856Z,20.30
2023-06-15T00:16:19.713Z,20.40
2023-06-15T00:18:50.988Z,20.20
2023-06-15T00:21:18.332Z,20.40
2023-06-15T00:23:46.360Z,20.40
2023-06-15T00:26:13.472Z,20.40
2023-06-15T00:28:40.776Z,20.40
2023-06-15T00:31:07.890Z,20.30
2023-06-15T00:33:35.106Z,19.60
2023-06-15T00:36:02.445Z,20.30
2023-06-15T00:38:29.548Z,20.20
2023-06-15T00:40:56.729Z,20.20
2023-06-15T00:43:23.907Z,20.20
2023-06-15T00:45:51.228Z,20.20
2023-06-15T00:48:18.413Z,20.10
2023-06-15T00:50:45.628Z,20.70
2023-06-15T00:53:13.053Z,20.30
2023-06-15T00:55:42.746Z,20.30
2023-06-15T00:58:10.553Z,20.30
2023-06-15T01:00:38.465Z,20.30
2023-06-15T01:03:07.454Z,20.30
2023-06-15T01:05:36.108Z,20.30
2023-06-15T01:08:09.333Z,20.30
2023-06-15T01:10:37.099Z,20.30
2023-06-15T01:13:06.139Z,20.30
2023-06-15T01:15:34.038Z,20.30
2023-06-15T01:18:04.249Z,20.70
2023-06-15T01:20:40.597Z,20.30
2023-06-15T01:23:56.668Z,20.30
2023-06-15T01:26:29.906Z,20.30
2023-06-15T01:28:58.015Z,20.30
2023-06-15T01:31:25.490Z,20.30
2023-06-15T01:33:53.198Z,20.20
2023-06-15T01:36:20.801Z,20.20
2023-06-15T01:38:52.695Z,20.20
2023-06-15T01:41:22.043Z,20.20
2023-06-15T01:43:49.604Z,20.20
2023-06-15T01:46:17.546Z,20.20
2023-06-15T01:48:44.952Z,20.30
2023-06-15T01:51:13.248Z,20.20
2023-06-15T01:53:40.502Z,20.20
2023-06-15T01:56:07.737Z,20.20
2023-06-15T01:58:34.897Z,20.20
2023-06-15T02:01:02.205Z,20.20
2023-06-15T02:03:29.349Z,20.20
2023-06-15T02:05:56.433Z,20.20
2023-06-15T02:08:23.551Z,20.20
2023-06-15T02:10:50.820Z,20.20
2023-06-15T02:13:18.492Z,20.20
2023-06-15T02:15:45.688Z,20.20
2023-06-15T02:18:16.192Z,20.20
2023-06-15T02:20:45.826Z,20.30
2023-06-15T02:23:13.688Z,20.30
2023-06-15T02:25:40.948Z,20.20
2023-06-15T02:28:08.115Z,20.30
2023-06-15T02:30:35.377Z,20.80
2023-06-15T02:33:03.405Z,20.30
2023-06-15T02:35:30.781Z,20.20
2023-06-15T02:37:57.882Z,19.80
2023-06-15T02:40:25.048Z,20.10
2023-06-15T02:42:52.210Z,20.20
2023-06-15T02:45:19.779Z,20.10
2023-06-15T02:47:50.212Z,20.10
2023-06-15T02:50:18.882Z,20.10
2023-06-15T02:52:46.816Z,20.10
2023-06-15T02:55:14.616Z,20.10
2023-06-15T02:57:42.703Z,20.10
2023-06-15T03:00:13.629Z,20.10
2023-06-15T03:02:44.156Z,20.10
2023-06-15T03:05:11.864Z,20.10
2023-06-15T03:07:41.507Z,20.10
2023-06-15T03:10:08.955Z,20.00
2023-06-15T03:12:36.255Z,20.10
2023-06-15T03:15:03.757Z,20.00
2023-06-15T03:17:33.492Z,20.10
2023-06-15T03:20:01.440Z,20.10
2023-06-15T03:22:28.872Z,20.00
2023-06-15T03:24:56.781Z,20.20
2023-06-15T03:27:23.966Z,20.20
2023-06-15T03:29:52.654Z,20.20
2023-06-15T03:32:19.833Z,20.00
2023-06-15T03:34:47.718Z,20.20
2023-06-15T03:37:15.274Z,20.20
2023-06-15T03:39:42.475Z,20.10
2023-06-15T03:42:09.602Z,20.20
2023-06-15T03:44:36.708Z,20.10
2023-06-15T03:47:04.163Z,20.10
2023-06-15T03:49:31.310Z,20.10
2023-06-15T03:51:58.395Z,20.10
2023-06-15T03:54:25.509Z,20.10
2023-06-15T03:56:52.635Z,20.00
2023-06-15T03:59:19.734Z,20.10
2023-06-15T04:01:46.994Z,20.10
2023-06-15T04:04:16.194Z,20.00
2023-06-15T04:06:47.771Z,20.00
2023-06-15T04:09:18.155Z,20.30
2023-06-15T04:11:45.513Z,20.20
2023-06-15T04:14:13.294Z,20.20
2023-06-15T04:16:40.481Z,20.10
2023-06-15T04:19:10.919Z,20.10
2023-06-15T04:21:38.172Z,20.10
2023-06-15T04:24:06.900Z,20.10
2023-06-15T04:26:34.158Z,20.10
2023-06-15T04:29:01.287Z,20.10
2023-06-15T04:31:32.097Z,20.10
2023-06-15T04:34:00.420Z,20.10
2023-06-15T04:36:32.362Z,20.20
2023-06-15T04:39:00.767Z,20.20
2023-06-15T04:41:29.086Z,20.20
2023-06-15T04:43:56.845Z,20.20
2023-06-15T04:46:24.314Z,20.10
2023-06-15T04:48:51.473Z,20.30
2023-06-15T04:51:19.538Z,20.80
2023-06-15T04:53:47.050Z,20.20
2023-06-15T04:56:14.789Z,20.10
2023-06-15T04:58:42.227Z,20.10
2023-06-15T05:01:09.376Z,20.20
2023-06-15T05:03:36.584Z,20.10
2023-06-15T05:06:03.791Z,20.20
2023-06-15T05:08:30.914Z,20.20
2023-06-15T05:10:58.283Z,20.20
2023-06-15T05:13:26.071Z,20.20
2023-06-15T05:15:55.813Z,20.20
2023-06-15T05:18:27.652Z,20.20
2023-06-15T05:20:54.829Z,20.30
2023-06-15T05:23:21.973Z,20.20
2023-06-15T05:25:49.285Z,20.30
2023-06-15T05:28:17.400Z,20.30
2023-06-15T05:30:44.650Z,19.50
2023-06-15T05:33:12.012Z,20.30
2023-06-15T05:35:39.156Z,20.30
2023-06-15T05:38:06.330Z,20.30
2023-06-15T05:40:33.466Z,20.30
2023-06-15T05:43:00.608Z,20.20
2023-06-15T05:45:28.772Z,20.50
2023-06-15T05:47:56.048Z,20.20
2023-06-15T05:50:23.165Z,20.20
2023-06-15T05:52:50.523Z,20.10
2023-06-15T05:55:18.441Z,20.10
2023-06-15T05:57:45.690Z,19.90
2023-06-15T06:00:13.459Z,20.00
2023-06-15T06:02:42.239Z,20.00
2023-06-15T06:05:09.496Z,20.10
2023-06-15T06:07:36.670Z,20.00
2023-06-15T06:10:04.200Z,20.10
2023-06-15T06:12:31.365Z,19.90
2023-06-15T06:14:58.481Z,19.70
2023-06-15T06:17:48.692Z,19.50
2023-06-15T06:20:13.128Z,19.50
2023-06-15T06:22:40.434Z,19.50
2023-06-15T06:25:08.133Z,19.50
2023-06-15T06:27:36.060Z,19.60
2023-06-15T06:30:03.381Z,19.80
2023-06-15T06:32:30.574Z,19.70
2023-06-15T06:34:57.757Z,19.80
2023-06-15T06:37:25.931Z,19.30
2023-06-15T06:39:53.140Z,19.80
2023-06-15T06:42:20.264Z,19.80
2023-06-15T06:44:47.398Z,19.80
2023-06-15T06:47:14.615Z,19.80
2023-06-15T06:49:41.772Z,19.80
2023-06-15T06:52:09.019Z,19.80
2023-06-15T06:54:36.140Z,19.80
2023-06-15T06:57:04.394Z,19.80
2023-06-15T06:59:43.304Z,19.90
2023-06-15T07:02:12.031Z,19.90
2023-06-15T07:04:39.229Z,19.80
2023-06-15T07:07:06.589Z,19.80
2023-06-15T07:09:33.778Z,19.80
2023-06-15T07:12:01.562Z,19.80
2023-06-15T07:14:28.742Z,19.80
2023-06-15T07:16:56.068Z,19.80
2023-06-15T07:19:23.232Z,19.80
2023-06-15T07:21:50.505Z,19.90
2023-06-15T07:24:17.849Z,19.90
2023-06-15T07:26:45.099Z,19.90
2023-06-15T07:29:12.191Z,19.90
2023-06-15T07:31:39.834Z,19.90
2023-06-15T07:34:07.035Z,19.90
2023-06-15T07:36:34.156Z,19.80
2023-06-15T07:39:01.406Z,19.90
2023-06-15T07:41:28.521Z,19.80
2023-06-15T07:43:55.841Z,19.80
2023-06-15T07:46:23.043Z,19.80
2023-06-15T07:48:50.148Z,19.80
2023-06-15T07:51:32.058Z,19.50
2023-06-15T07:54:04.402Z,19.40
2023-06-15T07:56:31.545Z,19.40
2023-06-15T07:58:58.678Z,19.60
2023-06-15T08:01:26.099Z,19.40
2023-06-15T08:03:53.243Z,19.40
2023-06-15T08:06:20.554Z,19.50
2023-06-15T08:08:47.723Z,19.50
2023-06-15T08:11:17.738Z,19.60
2023-06-15T08:13:44.996Z,19.60
2023-06-15T08:16:12.121Z,19.90
2023-06-15T08:18:39.247Z,19.80
2023-06-15T08:21:06.486Z,19.70
2023-06-15T08:23:33.595Z,19.60
2023-06-15T08:26:00.827Z,19.60
2023-06-15T08:28:27.941Z,19.60
2023-06-15T08:30:55.117Z,19.60
2023-06-15T08:33:22.304Z,19.70
2023-06-15T08:35:49.432Z,19.80
2023-06-15T08:38:16.555Z,20.00
2023-06-15T08:40:43.699Z,20.10
2023-06-15T08:43:11.753Z,20.10
2023-06-15T08:45:43.366Z,20.20
2023-06-15T08:48:16.721Z,20.30
2023-06-15T08:50:46.526Z,20.40
2023-06-15T08:53:15.365Z,20.40
2023-06-15T08:55:43.086Z,20.40
2023-06-15T08:58:11.204Z,20.40
2023-06-15T09:00:38.370Z,21.10
2023-06-15T09:03:09.005Z,20.40
2023-06-15T09:05:36.512Z,20.50
2023-06-15T09:08:04.903Z,20.50
2023-06-15T09:10:38.099Z,20.50
2023-06-15T09:13:05.831Z,20.40
2023-06-15T09:15:33.362Z,20.40
2023-06-15T09:18:02.626Z,20.40
2023-06-15T09:20:32.049Z,20.40
2023-06-15T09:23:05.068Z,20.40
2023-06-15T09:25:33.616Z,20.40
2023-06-15T09:28:02.474Z,20.40
2023-06-15T09:30:33.789Z,20.40
2023-06-15T09:33:18.295Z,20.70
2023-06-15T09:36:04.944Z,20.40
2023-06-15T09:38:42.649Z,20.40
2023-06-15T09:41:10.333Z,20.40
2023-06-15T09:43:40.635Z,20.40
2023-06-15T09:46:17.019Z,20.40
2023-06-15T09:48:45.768Z,20.40
2023-06-15T09:51:12.909Z,20.50
2023-06-15T09:53:43.476Z,20.50
2023-06-15T09:56:28.770Z,20.40
2023-06-15T09:59:00.169Z,20.50
2023-06-15T10:01:29.399Z,20.50
2023-06-15T10:03:58.789Z,20.50
2023-06-15T10:06:27.642Z,20.40
2023-06-15T10:08:59.367Z,20.10
2023-06-15T10:11:28.905Z,20.40
2023-06-15T10:14:01.656Z,20.40
2023-06-15T10:16:29.612Z,20.40
2023-06-15T10:19:06.262Z,20.40
2023-06-15T10:21:39.508Z,20.40
2023-06-15T10:24:13.781Z,20.40
2023-06-15T10:26:41.584Z,20.40
2023-06-15T10:29:17.879Z,20.40
2023-06-15T10:31:55.236Z,20.50
2023-06-15T10:34:31.679Z,20.50
2023-06-15T10:37:08.600Z,20.50
2023-06-15T10:39:40.855Z,20.50
2023-06-15T10:42:09.181Z,20.50
2023-06-15T10:44:36.729Z,20.60
2023-06-15T10:47:07.815Z,20.60
2023-06-15T10:49:35.612Z,20.60
2023-06-15T10:52:05.363Z,20.60
2023-06-15T10:54:32.692Z,20.60
2023-06-15T10:56:59.885Z,20.60
2023-06-15T10:59:42.304Z,20.50
2023-06-15T11:02:27.989Z,20.50
2023-06-15T11:05:17.177Z,20.50
2023-06-15T11:07:48.153Z,20.50
2023-06-15T11:10:23.972Z,20.50
2023-06-15T11:13:03.594Z,20.50
2023-06-15T11:15:35.975Z,20.50
2023-06-15T11:18:05.220Z,20.50
2023-06-15T11:20:55.732Z,20.40
2023-06-15T11:23:25.445Z,20.40
2023-06-15T11:25:56.834Z,20.40
2023-06-15T11:28:37.886Z,20.50
2023-06-15T11:31:08.063Z,20.60
2023-06-15T11:33:37.672Z,20.50
2023-06-15T11:36:09.543Z,20.50
2023-06-15T11:38:37.483Z,20.50
2023-06-15T11:41:10.159Z,20.50
2023-06-15T11:43:50.519Z,20.50
2023-06-15T11:46:21.697Z,20.50
2023-06-15T11:48:57.664Z,20.50
2023-06-15T11:51:26.321Z,20.50
2023-06-15T11:53:54.726Z,20.50
2023-06-15T11:56:23.008Z,20.50
2023-06-15T11:58:50.830Z,20.40
2023-06-15T12:01:18.285Z,20.50
2023-06-15T12:04:02.182Z,20.50
2023-06-15T12:06:30.279Z,20.50
2023-06-15T12:08:57.643Z,20.50
2023-06-15T12:11:27.268Z,20.50
2023-06-15T12:14:09.907Z,20.40
2023-06-15T12:16:38.902Z,20.50
2023-06-15T12:19:09.860Z,20.40
2023-06-15T12:21:38.711Z,20.70
2023-06-15T12:24:16.442Z,20.40
2023-06-15T12:26:52.474Z,20.50
2023-06-15T12:29:21.371Z,20.50
2023-06-15T12:31:50.174Z,20.40
2023-06-15T12:34:22.465Z,20.60
2023-06-15T12:36:50.529Z,20.60
2023-06-15T12:39:19.266Z,20.60
2023-06-15T12:41:46.505Z,20.50
2023-06-15T12:44:13.660Z,20.50
2023-06-15T12:46:41.616Z,20.60
2023-06-15T12:49:11.316Z,20.50
2023-06-15T12:51:38.739Z,20.50
2023-06-15T12:54:06.573Z,20.50
2023-06-15T12:56:37.879Z,20.50
2023-06-15T12:59:05.096Z,20.60
2023-06-15T13:01:35.392Z,20.60
2023-06-15T13:04:03.670Z,20.60
2023-06-15T13:06:31.047Z,20.60
2023-06-15T13:08:58.197Z,20.60
2023-06-15T13:11:27.730Z,20.40
2023-06-15T13:13:54.853Z,20.60
2023-06-15T13:16:22.038Z,20.60
2023-06-15T13:18:49.280Z,20.60
2023-06-15T13:21:19.652Z,20.70
2023-06-15T13:23:47.946Z,20.60
2023-06-15T13:26:15.306Z,20.70
2023-06-15T13:28:43.016Z,20.70
2023-06-15T13:31:10.625Z,20.70
2023-06-15T13:33:37.773Z,20.80
2023-06-15T13:36:05.086Z,21.10
2023-06-15T13:38:32.183Z,20.70
2023-06-15T13:40:59.443Z,20.70
2023-06-15T13:43:26.736Z,20.70
2023-06-15T13:45:53.875Z,20.70
2023-06-15T13:48:20.999Z,20.60
2023-06-15T13:50:48.178Z,20.60
2023-06-15T13:53:15.384Z,20.60
2023-06-15T13:55:43.635Z,20.60
2023-06-15T13:58:10.815Z,20.20
2023-06-15T14:00:39.324Z,20.70
2023-06-15T14:03:07.608Z,20.90
2023-06-15T14:05:35.130Z,20.70
2023-06-15T14:08:02.380Z,20.70
2023-06-15T14:10:29.595Z,20.70
2023-06-15T14:12:57.552Z,20.80
2023-06-15T14:15:24.995Z,20.90
2023-06-15T14:17:52.370Z,20.80
2023-06-15T14:20:20.140Z,20.90
2023-06-15T14:22:47.453Z,20.80
2023-06-15T14:25:15.817Z,20.80
2023-06-15T14:27:48.476Z,20.80
2023-06-15T14:30:18.476Z,20.80
2023-06-15T14:32:46.425Z,20.90
2023-06-15T14:35:13.607Z,21.10
2023-06-15T14:37:40.848Z,20.80
2023-06-15T14:40:08.344Z,20.80
2023-06-15T14:42:48.115Z,20.80
2023-06-15T14:45:16.418Z,20.80
2023-06-15T14:47:44.289Z,20.80
2023-06-15T14:50:11.475Z,20.80
2023-06-15T14:52:38.837Z,20.50
2023-06-15T14:55:06.404Z,20.50
2023-06-15T14:57:33.557Z,20.70
2023-06-15T15:00:01.055Z,20.70
2023-06-15T15:02:28.335Z,20.70
2023-06-15T15:04:57.752Z,20.70
2023-06-15T15:07:24.840Z,20.80
2023-06-15T15:09:52.009Z,20.80
2023-06-15T15:12:19.113Z,20.80
2023-06-15T15:14:46.275Z,20.80
2023-06-15T15:17:14.257Z,20.80
2023-06-15T15:19:41.501Z,20.70
2023-06-15T15:22:08.601Z,20.30
2023-06-15T15:24:35.973Z,20.70
2023-06-15T15:27:03.295Z,20.70
2023-06-15T15:29:30.460Z,20.70
2023-06-15T15:31:57.612Z,20.70
2023-06-15T15:34:24.939Z,20.70
2023-06-15T15:36:52.147Z,20.70
2023-06-15T15:39:19.315Z,20.70
2023-06-15T15:41:46.688Z,20.70
2023-06-15T15:44:13.788Z,20.70
2023-06-15T15:46:41.047Z,20.60
2023-06-15T15:49:08.346Z,20.70
2023-06-15T15:51:36.502Z,20.70
2023-06-15T15:54:03.778Z,20.70
2023-06-15T15:56:31.063Z,20.60
2023-06-15T15:58:58.177Z,20.60
2023-06-15T16:01:28.378Z,20.60
2023-06-15T16:03:55.775Z,20.60
2023-06-15T16:06:22.997Z,20.70
2023-06-15T16:08:50.469Z,20.70
2023-06-15T16:11:17.676Z,20.70
2023-06-15T16:13:46.160Z,20.70
2023-06-15T16:18:43.263Z,21.00
2023-06-15T16:21:10.579Z,20.80
2023-06-15T16:23:37.724Z,20.70
2023-06-15T16:26:04.871Z,20.80
2023-06-15T16:28:33.689Z,20.70
2023-06-15T16:31:01.311Z,20.60
2023-06-15T16:33:28.407Z,20.60
2023-06-15T16:35:55.703Z,20.60
2023-06-15T16:38:22.891Z,20.50
2023-06-15T16:40:50.084Z,20.40
2023-06-15T16:43:17.192Z,20.40
2023-06-15T16:45:44.401Z,20.50
2023-06-15T16:48:11.888Z,20.60
2023-06-15T16:50:39.145Z,20.60
2023-06-15T16:53:06.319Z,20.50
2023-06-15T16:55:33.504Z,20.60
2023-06-15T16:58:01.732Z,20.60
2023-06-15T17:00:29.495Z,20.60
2023-06-15T17:02:57.047Z,20.60
2023-06-15T17:05:24.299Z,20.60
2023-06-15T17:07:51.454Z,20.50
2023-06-15T17:10:19.163Z,20.30
2023-06-15T17:12:46.594Z,20.40
2023-06-15T17:15:13.760Z,20.50
2023-06-15T17:17:41.373Z,20.70
2023-06-15T17:20:09.070Z,20.70
2023-06-15T17:22:37.485Z,20.70
2023-06-15T17:25:05.021Z,20.70
2023-06-15T17:27:32.171Z,20.70
2023-06-15T17:29:59.272Z,20.60
2023-06-15T17:32:26.826Z,20.60
2023-06-15T17:34:54.045Z,20.60
2023-06-15T17:37:21.920Z,20.60
2023-06-15T17:39:49.120Z,20.60
2023-06-15T17:42:16.330Z,20.50
2023-06-15T17:44:43.552Z,20.40
2023-06-15T17:47:10.662Z,20.40
2023-06-15T17:49:37.798Z,20.40
2023-06-15T17:52:07.688Z,20.40
2023-06-15T17:54:34.825Z,20.40
2023-06-15T17:57:02.165Z,20.40
2023-06-15T17:59:29.366Z,20.30
2023-06-15T18:01:56.474Z,20.40
2023-06-15T18:04:23.658Z,20.30
2023-06-15T18:06:50.807Z,20.30
2023-06-15T18:09:17.960Z,20.10
2023-06-15T18:11:45.117Z,20.30
2023-06-15T18:14:12.215Z,20.20
2023-06-15T18:16:39.598Z,20.20
2023-06-15T18:19:06.954Z,20.10
2023-06-15T18:21:34.071Z,20.20
2023-06-15T18:24:01.215Z,20.20
2023-06-15T18:26:28.403Z,20.20
2023-06-15T18:28:56.208Z,20.20
2023-06-15T18:31:23.474Z,20.30
2023-06-15T18:33:50.646Z,20.30
2023-06-15T18:36:18.623Z,20.30
2023-06-15T18:38:46.001Z,20.30
2023-06-15T18:41:13.116Z,20.30
2023-06-15T18:43:41.192Z,20.30
2023-06-15T18:46:08.471Z,20.30
2023-06-15T18:48:36.062Z,20.30
2023-06-15T18:51:03.732Z,20.30
2023-06-15T18:53:30.847Z,20.30
2023-06-15T18:55:58.962Z,20.30
2023-06-15T18:58:26.335Z,20.20
2023-06-15T19:00:53.450Z,20.20
2023-06-15T19:03:20.854Z,20.00
2023-06-15T19:05:51.047Z,20.00
2023-06-15T19:08:19.680Z,19.90
2023-06-15T19:10:46.781Z,20.00
2023-06-15T19:13:13.908Z,20.00
2023-06-15T19:15:41.177Z,20.10
2023-06-15T19:18:08.426Z,20.10
2023-06-15T19:20:35.681Z,20.10
2023-06-15T19:23:02.945Z,20.60
2023-06-15T19:25:30.103Z,20.00
2023-06-15T19:27:57.207Z,20.00
2023-06-15T19:30:25.341Z,19.90
2023-06-15T19:32:52.487Z,19.40
2023-06-15T19:35:20.273Z,19.90
2023-06-15T19:37:47.429Z,19.80
2023-06-15T19:40:15.125Z,19.80
2023-06-15T19:42:42.635Z,19.80
2023-06-15T19:45:10.326Z,19.70
2023-06-15T19:47:39.987Z,19.70
2023-06-15T19:50:08.154Z,19.60
2023-06-15T19:52:35.303Z,19.60
2023-06-15T19:55:02.819Z,19.40
2023-06-15T19:57:29.981Z,19.50
2023-06-15T19:59:57.567Z,19.50
2023-06-15T20:02:24.801Z,19.50
2023-06-15T20:04:52.007Z,19.50
2023-06-15T20:07:19.154Z,19.60
2023-06-15T20:09:46.354Z,19.60
2023-06-15T20:12:13.547Z,19.70
2023-06-15T20:14:40.671Z,19.70
2023-06-15T20:17:07.853Z,19.70
2023-06-15T20:19:34.968Z,19.70
2023-06-15T20:22:03.559Z,19.60
2023-06-15T20:24:30.864Z,19.60
2023-06-15T20:26:58.053Z,19.50
2023-06-15T20:29:25.421Z,19.30
2023-06-15T20:31:52.527Z,19.30
2023-06-15T20:34:19.728Z,19.20
2023-06-15T20:36:47.129Z,19.30
2023-06-15T20:39:15.921Z,19.30
2023-06-15T20:41:43.014Z,19.20
2023-06-15T20:44:10.190Z,19.20
2023-06-15T20:46:37.370Z,19.20
2023-06-15T20:49:04.601Z,19.20
2023-06-15T20:51:31.785Z,19.10
2023-06-15T20:53:58.917Z,19.20
2023-06-15T20:56:26.068Z,19.30
2023-06-15T20:58:54.442Z,19.30
2023-06-15T21:01:22.311Z,19.10
2023-06-15T21:03:49.574Z,18.50
2023-06-15T21:06:16.814Z,19.10
2023-06-15T21:08:44.114Z,19.10
2023-06-15T21:11:11.367Z,19.10
2023-06-15T21:13:38.462Z,19.10
2023-06-15T21:16:06.700Z,19.10
2023-06-15T21:18:35.741Z,19.10
2023-06-15T21:21:04.525Z,19.20
2023-06-15T21:23:33.614Z,19.30
2023-06-15T21:26:03.869Z,19.30
2023-06-15T21:28:31.037Z,19.30
2023-06-15T21:30:58.315Z,19.50
2023-06-15T21:33:25.655Z,19.70
2023-06-15T21:35:52.876Z,19.50
2023-06-15T21:38:21.899Z,19.60
2023-06-15T21:40:49.264Z,20.10
2023-06-15T21:43:16.394Z,19.50
2023-06-15T21:45:43.783Z,19.50
2023-06-15T21:48:11.089Z,19.60
2023-06-15T21:50:38.247Z,19.50
2023-06-15T21:53:05.503Z,19.50
2023-06-15T21:55:32.726Z,19.50
2023-06-15T21:57:59.833Z,19.30
2023-06-15T22:00:27.975Z,19.60
2023-06-15T22:02:55.462Z,19.40
2023-06-15T22:05:22.760Z,19.40
2023-06-15T22:07:51.395Z,19.40
2023-06-15T22:10:18.910Z,19.40
2023-06-15T22:12:46.556Z,19.40
2023-06-15T22:15:14.455Z,20.10
2023-06-15T22:17:44.183Z,19.40
2023-06-15T22:20:12.452Z,19.40
2023-06-15T22:22:40.167Z,19.50
2023-06-15T22:25:07.627Z,19.40
2023-06-15T22:27:35.415Z,19.40
2023-06-15T22:30:03.174Z,19.30
2023-06-15T22:32:30.450Z,19.40
2023-06-15T22:34:57.612Z,19.70
2023-06-15T22:37:24.868Z,19.40
2023-06-15T22:39:52.048Z,19.20
2023-06-15T22:42:19.222Z,19.50
2023-06-15T22:44:47.823Z,19.60
2023-06-15T22:47:18.764Z,19.60
2023-06-15T22:49:46.026Z,19.50
2023-06-15T22:52:13.960Z,19.40
2023-06-15T22:54:43.926Z,19.60
2023-06-15T22:57:11.747Z,19.40
2023-06-15T22:59:39.728Z,19.50
2023-06-15T23:02:06.911Z,19.50
2023-06-15T23:04:34.264Z,19.70
2023-06-15T23:07:04.353Z,19.80
2023-06-15T23:09:37.479Z,20.40
2023-06-15T23:12:10.190Z,19.90
2023-06-15T23:14:39.798Z,20.00
2023-06-15T23:17:07.802Z,20.00
2023-06-15T23:19:35.003Z,20.10
2023-06-15T23:22:05.900Z,20.10
2023-06-15T23:24:33.222Z,20.10
2023-06-15T23:27:00.472Z,20.10
2023-06-15T23:29:28.484Z,20.20
2023-06-15T23:31:55.740Z,20.20
2023-06-15T23:34:22.855Z,20.30
2023-06-15T23:36:50.079Z,20.20
2023-06-15T23:39:17.203Z,20.20
2023-06-15T23:41:44.376Z,20.20
2023-06-15T23:44:11.515Z,20.20
2023-06-15T23:46:38.696Z,20.10
2023-06-15T23:49:05.894Z,20.10
2023-06-15T23:51:33.021Z,20.10
2023-06-15T23:54:00.158Z,20.10
2023-06-15T23:56:27.333Z,20.10
2023-06-15T23:58:54.524Z,20.00
